sensor_id;sensor_type;location;lat;lon;timestamp;P1;durP1;ratioP1;P2;durP2;ratioP2
2289;SDS011;1153;47.986;7.898;2023-03-08T00:02:11;15.73;;;7.67;;
2289;SDS011;1153;47.986;7.898;2023-03-08T00:04:36;19.67;;;7.67;;
2289;SDS011;1153;47.986;7.898;2023-03-08T00:07:02;7.90;;;5.50;;
2289;SDS011;1153;47.986;7.898;2023-03-08T00:09:27;15.33;;;7.37;;
2289;SDS011;1153;47.986;7.898;2023-03-08T00:11:52;15.10;;;8.60;;
2289;SDS011;1153;47.986;7.898;2023-03-08T00:14:17;14.90;;;8.53;;
2289;SDS011;1153;47.986;7.898;2023-03-08T00:16:44;12.17;;;7.17;;
2289;SDS011;1153;47.986;7.898;2023-03-08T00:19:09;18.60;;;8.60;;
2289;SDS011;1153;47.986;7.898;2023-03-08T00:21:34;12.30;;;7.10;;
2289;SDS011;1153;47.986;7.898;2023-03-08T00:24:00;10.10;;;6.27;;
2289;SDS011;1153;47.986;7.898;2023-03-08T00:26:25;8.73;;;6.83;;
2289;SDS011;1153;47.986;7.898;2023-03-08T00:28:50;10.63;;;6.23;;
2289;SDS011;1153;47.986;7.898;2023-03-08T00:31:16;12.30;;;8.07;;
2289;SDS011;1153;47.986;7.898;2023-03-08T00:33:41;8.10;;;7.00;;
2289;SDS011;1153;47.986;7.898;2023-03-08T00:36:09;16.37;;;7.37;;
2289;SDS011;1153;47.986;7.898;2023-03-08T00:38:36;13.43;;;6.77;;
2289;SDS011;1153;47.986;7.898;2023-03-08T00:41:01;10.83;;;7.40;;
2289;SDS011;1153;47.986;7.898;2023-03-08T00:43:27;19.00;;;6.83;;
2289;SDS011;1153;47.986;7.898;2023-03-08T00:45:52;11.73;;;6.07;;
2289;SDS011;1153;47.986;7.898;2023-03-08T00:48:18;11.67;;;7.80;;
2289;SDS011;1153;47.986;7.898;2023-03-08T00:50:43;11.50;;;6.50;;
2289;SDS011;1153;47.986;7.898;2023-03-08T00:53:08;16.30;;;6.67;;
2289;SDS011;1153;47.986;7.898;2023-03-08T00:55:34;7.33;;;6.63;;
2289;SDS011;1153;47.986;7.898;2023-03-08T00:57:59;7.60;;;6.10;;
2289;SDS011;1153;47.986;7.898;2023-03-08T01:00:24;7.63;;;5.90;;
2289;SDS011;1153;47.986;7.898;2023-03-08T01:02:50;8.70;;;6.70;;
2289;SDS011;1153;47.986;7.898;2023-03-08T01:05:15;11.33;;;6.03;;
2289;SDS011;1153;47.986;7.898;2023-03-08T01:07:40;9.60;;;7.80;;
2289;SDS011;1153;47.986;7.898;2023-03-08T01:10:05;12.73;;;6.43;;
2289;SDS011;1153;47.986;7.898;2023-03-08T01:12:31;7.90;;;5.50;;
2289;SDS011;1153;47.986;7.898;2023-03-08T01:14:57;5.97;;;5.23;;
2289;SDS011;1153;47.986;7.898;2023-03-08T01:17:22;9.97;;;5.80;;
2289;SDS011;1153;47.986;7.898;2023-03-08T01:19:47;6.83;;;6.07;;
2289;SDS011;1153;47.986;7.898;2023-03-08T01:22:12;8.80;;;5.83;;
2289;SDS011;1153;47.986;7.898;2023-03-08T01:24:38;13.27;;;6.33;;
2289;SDS011;1153;47.986;7.898;2023-03-08T01:27:03;9.17;;;5.70;;
2289;SDS011;1153;47.986;7.898;2023-03-08T01:29:28;7.67;;;5.37;;
2289;SDS011;1153;47.986;7.898;2023-03-08T01:31:54;6.90;;;5.10;;
2289;SDS011;1153;47.986;7.898;2023-03-08T01:34:19;6.03;;;5.40;;
2289;SDS011;1153;47.986;7.898;2023-03-08T01:36:45;8.03;;;5.67;;
2289;SDS011;1153;47.986;7.898;2023-03-08T01:39:10;6.90;;;5.20;;
2289;SDS011;1153;47.986;7.898;2023-03-08T01:41:36;7.30;;;5.63;;
2289;SDS011;1153;47.986;7.898;2023-03-08T01:44:01;7.03;;;5.30;;
2289;SDS011;1153;47.986;7.898;2023-03-08T01:48:58;7.40;;;5.50;;
2289;SDS011;1153;47.986;7.898;2023-03-08T01:51:27;9.07;;;5.03;;
2289;SDS011;1153;47.986;7.898;2023-03-08T01:53:52;6.00;;;4.73;;
2289;SDS011;1153;47.986;7.898;2023-03-08T01:56:18;6.90;;;5.47;;
2289;SDS011;1153;47.986;7.898;2023-03-08T01:58:44;7.13;;;5.77;;
2289;SDS011;1153;47.986;7.898;2023-03-08T02:01:09;8.10;;;5.77;;
2289;SDS011;1153;47.986;7.898;2023-03-08T02:03:35;7.80;;;5.50;;
2289;SDS011;1153;47.986;7.898;2023-03-08T02:06:00;6.97;;;5.03;;
2289;SDS011;1153;47.986;7.898;2023-03-08T02:08:27;11.80;;;5.73;;
2289;SDS011;1153;47.986;7.898;2023-03-08T02:10:52;6.10;;;5.50;;
2289;SDS011;1153;47.986;7.898;2023-03-08T02:13:18;8.87;;;6.63;;
2289;SDS011;1153;47.986;7.898;2023-03-08T02:15:43;16.43;;;6.27;;
2289;SDS011;1153;47.986;7.898;2023-03-08T02:18:09;10.87;;;6.90;;
2289;SDS011;1153;47.986;7.898;2023-03-08T02:20:35;8.80;;;5.67;;
2289;SDS011;1153;47.986;7.898;2023-03-08T02:25:31;6.63;;;5.77;;
2289;SDS011;1153;47.986;7.898;2023-03-08T02:27:56;7.07;;;5.53;;
2289;SDS011;1153;47.986;7.898;2023-03-08T02:30:23;8.57;;;5.27;;
2289;SDS011;1153;47.986;7.898;2023-03-08T02:32:48;10.07;;;6.00;;
2289;SDS011;1153;47.986;7.898;2023-03-08T02:35:13;11.10;;;6.00;;
2289;SDS011;1153;47.986;7.898;2023-03-08T02:37:38;7.60;;;6.90;;
2289;SDS011;1153;47.986;7.898;2023-03-08T02:40:04;8.20;;;6.80;;
2289;SDS011;1153;47.986;7.898;2023-03-08T02:42:29;7.87;;;6.23;;
2289;SDS011;1153;47.986;7.898;2023-03-08T02:44:54;8.23;;;6.03;;
2289;SDS011;1153;47.986;7.898;2023-03-08T02:47:20;9.90;;;6.20;;
2289;SDS011;1153;47.986;7.898;2023-03-08T02:49:45;8.43;;;5.63;;
2289;SDS011;1153;47.986;7.898;2023-03-08T02:52:10;7.47;;;5.13;;
2289;SDS011;1153;47.986;7.898;2023-03-08T02:54:35;11.37;;;6.67;;
2289;SDS011;1153;47.986;7.898;2023-03-08T02:57:01;10.10;;;6.40;;
2289;SDS011;1153;47.986;7.898;2023-03-08T02:59:26;8.90;;;5.77;;
2289;SDS011;1153;47.986;7.898;2023-03-08T03:01:51;11.50;;;6.80;;
2289;SDS011;1153;47.986;7.898;2023-03-08T03:04:16;7.00;;;5.27;;
2289;SDS011;1153;47.986;7.898;2023-03-08T03:06:42;15.43;;;6.10;;
2289;SDS011;1153;47.986;7.898;2023-03-08T03:09:07;8.87;;;6.90;;
2289;SDS011;1153;47.986;7.898;2023-03-08T03:11:33;8.77;;;5.87;;
2289;SDS011;1153;47.986;7.898;2023-03-08T03:13:58;9.20;;;6.97;;
2289;SDS011;1153;47.986;7.898;2023-03-08T03:16:24;8.70;;;5.17;;
2289;SDS011;1153;47.986;7.898;2023-03-08T03:18:50;13.33;;;6.07;;
2289;SDS011;1153;47.986;7.898;2023-03-08T03:21:16;10.07;;;6.17;;
2289;SDS011;1153;47.986;7.898;2023-03-08T03:23:41;10.40;;;6.37;;
2289;SDS011;1153;47.986;7.898;2023-03-08T03:26:08;8.40;;;5.90;;
2289;SDS011;1153;47.986;7.898;2023-03-08T03:28:33;10.23;;;5.70;;
2289;SDS011;1153;47.986;7.898;2023-03-08T03:30:59;10.80;;;5.60;;
2289;SDS011;1153;47.986;7.898;2023-03-08T03:33:24;13.23;;;5.30;;
2289;SDS011;1153;47.986;7.898;2023-03-08T03:35:49;12.70;;;5.47;;
2289;SDS011;1153;47.986;7.898;2023-03-08T03:38:14;9.00;;;6.50;;
2289;SDS011;1153;47.986;7.898;2023-03-08T03:40:40;11.00;;;6.20;;
2289;SDS011;1153;47.986;7.898;2023-03-08T03:43:05;6.20;;;5.57;;
2289;SDS011;1153;47.986;7.898;2023-03-08T03:45:30;9.87;;;6.10;;
2289;SDS011;1153;47.986;7.898;2023-03-08T03:47:55;9.17;;;6.13;;
2289;SDS011;1153;47.986;7.898;2023-03-08T03:50:20;9.07;;;6.70;;
2289;SDS011;1153;47.986;7.898;2023-03-08T03:52:46;10.33;;;6.63;;
2289;SDS011;1153;47.986;7.898;2023-03-08T03:55:11;9.40;;;7.40;;
2289;SDS011;1153;47.986;7.898;2023-03-08T03:57:36;11.77;;;7.23;;
2289;SDS011;1153;47.986;7.898;2023-03-08T04:00:02;9.93;;;6.70;;
2289;SDS011;1153;47.986;7.898;2023-03-08T04:02:28;10.00;;;7.27;;
2289;SDS011;1153;47.986;7.898;2023-03-08T04:04:53;10.87;;;6.50;;
2289;SDS011;1153;47.986;7.898;2023-03-08T04:07:19;10.37;;;6.50;;
2289;SDS011;1153;47.986;7.898;2023-03-08T04:09:44;10.70;;;6.33;;
2289;SDS011;1153;47.986;7.898;2023-03-08T04:12:09;7.27;;;6.20;;
2289;SDS011;1153;47.986;7.898;2023-03-08T04:14:34;10.23;;;6.87;;
2289;SDS011;1153;47.986;7.898;2023-03-08T04:16:59;8.73;;;6.00;;
2289;SDS011;1153;47.986;7.898;2023-03-08T04:19:25;9.00;;;6.53;;
2289;SDS011;1153;47.986;7.898;2023-03-08T04:21:50;11.07;;;6.93;;
2289;SDS011;1153;47.986;7.898;2023-03-08T04:24:15;12.03;;;5.67;;
2289;SDS011;1153;47.986;7.898;2023-03-08T04:26:40;9.53;;;6.43;;
2289;SDS011;1153;47.986;7.898;2023-03-08T04:29:05;8.60;;;6.10;;
2289;SDS011;1153;47.986;7.898;2023-03-08T04:31:32;8.90;;;6.17;;
2289;SDS011;1153;47.986;7.898;2023-03-08T04:33:58;9.00;;;5.60;;
2289;SDS011;1153;47.986;7.898;2023-03-08T04:36:24;9.73;;;6.33;;
2289;SDS011;1153;47.986;7.898;2023-03-08T04:38:49;11.80;;;6.07;;
2289;SDS011;1153;47.986;7.898;2023-03-08T04:41:14;12.50;;;6.40;;
2289;SDS011;1153;47.986;7.898;2023-03-08T04:43:43;9.67;;;6.60;;
2289;SDS011;1153;47.986;7.898;2023-03-08T04:46:08;8.27;;;6.13;;
2289;SDS011;1153;47.986;7.898;2023-03-08T04:48:33;8.00;;;6.77;;
2289;SDS011;1153;47.986;7.898;2023-03-08T04:51:00;9.73;;;6.90;;
2289;SDS011;1153;47.986;7.898;2023-03-08T04:53:25;10.10;;;7.50;;
2289;SDS011;1153;47.986;7.898;2023-03-08T04:55:50;6.53;;;5.70;;
2289;SDS011;1153;47.986;7.898;2023-03-08T04:58:16;7.63;;;6.23;;
2289;SDS011;1153;47.986;7.898;2023-03-08T05:00:41;6.20;;;5.67;;
2289;SDS011;1153;47.986;7.898;2023-03-08T05:03:07;11.97;;;7.13;;
2289;SDS011;1153;47.986;7.898;2023-03-08T05:05:32;13.10;;;7.17;;
2289;SDS011;1153;47.986;7.898;2023-03-08T05:07:58;9.53;;;5.70;;
2289;SDS011;1153;47.986;7.898;2023-03-08T05:10:24;7.60;;;4.90;;
2289;SDS011;1153;47.986;7.898;2023-03-08T05:12:49;6.77;;;5.40;;
2289;SDS011;1153;47.986;7.898;2023-03-08T05:15:14;6.67;;;5.50;;
2289;SDS011;1153;47.986;7.898;2023-03-08T05:17:39;13.13;;;7.80;;
2289;SDS011;1153;47.986;7.898;2023-03-08T05:20:05;9.80;;;5.47;;
2289;SDS011;1153;47.986;7.898;2023-03-08T05:22:30;7.50;;;5.83;;
2289;SDS011;1153;47.986;7.898;2023-03-08T05:24:55;13.13;;;7.07;;
2289;SDS011;1153;47.986;7.898;2023-03-08T05:27:20;9.93;;;6.80;;
2289;SDS011;1153;47.986;7.898;2023-03-08T05:29:45;7.40;;;6.20;;
2289;SDS011;1153;47.986;7.898;2023-03-08T05:32:11;10.67;;;7.27;;
2289;SDS011;1153;47.986;7.898;2023-03-08T05:34:36;11.13;;;7.00;;
2289;SDS011;1153;47.986;7.898;2023-03-08T05:37:02;6.93;;;5.70;;
2289;SDS011;1153;47.986;7.898;2023-03-08T05:39:27;10.93;;;6.27;;
2289;SDS011;1153;47.986;7.898;2023-03-08T05:41:54;7.07;;;6.37;;
2289;SDS011;1153;47.986;7.898;2023-03-08T05:44:19;7.77;;;5.90;;
2289;SDS011;1153;47.986;7.898;2023-03-08T05:46:44;6.47;;;5.87;;
2289;SDS011;1153;47.986;7.898;2023-03-08T05:49:09;6.77;;;5.57;;
2289;SDS011;1153;47.986;7.898;2023-03-08T05:51:34;11.30;;;5.20;;
2289;SDS011;1153;47.986;7.898;2023-03-08T05:54:00;5.90;;;5.17;;
2289;SDS011;1153;47.986;7.898;2023-03-08T05:56:25;11.53;;;6.57;;
2289;SDS011;1153;47.986;7.898;2023-03-08T05:58:50;8.87;;;5.77;;
2289;SDS011;1153;47.986;7.898;2023-03-08T06:01:19;7.90;;;5.87;;
2289;SDS011;1153;47.986;7.898;2023-03-08T06:03:45;11.13;;;6.73;;
2289;SDS011;1153;47.986;7.898;2023-03-08T06:06:11;7.20;;;6.50;;
2289;SDS011;1153;47.986;7.898;2023-03-08T06:08:36;7.83;;;5.57;;
2289;SDS011;1153;47.986;7.898;2023-03-08T06:11:01;14.73;;;7.00;;
2289;SDS011;1153;47.986;7.898;2023-03-08T06:13:27;7.27;;;6.33;;
2289;SDS011;1153;47.986;7.898;2023-03-08T06:15:55;7.07;;;6.37;;
2289;SDS011;1153;47.986;7.898;2023-03-08T06:18:21;5.63;;;4.63;;
2289;SDS011;1153;47.986;7.898;2023-03-08T06:20:59;10.13;;;6.83;;
2289;SDS011;1153;47.986;7.898;2023-03-08T06:23:25;7.60;;;5.70;;
2289;SDS011;1153;47.986;7.898;2023-03-08T06:25:50;7.80;;;6.23;;
2289;SDS011;1153;47.986;7.898;2023-03-08T06:28:16;7.27;;;5.53;;
2289;SDS011;1153;47.986;7.898;2023-03-08T06:30:41;7.33;;;5.77;;
2289;SDS011;1153;47.986;7.898;2023-03-08T06:33:06;10.03;;;7.40;;
2289;SDS011;1153;47.986;7.898;2023-03-08T06:35:31;9.83;;;8.40;;
2289;SDS011;1153;47.986;7.898;2023-03-08T06:37:56;8.07;;;6.10;;
2289;SDS011;1153;47.986;7.898;2023-03-08T06:40:22;7.23;;;6.23;;
2289;SDS011;1153;47.986;7.898;2023-03-08T06:42:47;12.47;;;6.73;;
2289;SDS011;1153;47.986;7.898;2023-03-08T06:45:13;9.60;;;6.70;;
2289;SDS011;1153;47.986;7.898;2023-03-08T06:47:38;6.87;;;5.80;;
2289;SDS011;1153;47.986;7.898;2023-03-08T06:50:03;12.67;;;7.97;;
2289;SDS011;1153;47.986;7.898;2023-03-08T06:52:29;10.03;;;7.33;;
2289;SDS011;1153;47.986;7.898;2023-03-08T06:55:01;17.27;;;6.60;;
2289;SDS011;1153;47.986;7.898;2023-03-08T06:57:26;12.30;;;7.60;;
2289;SDS011;1153;47.986;7.898;2023-03-08T06:59:51;10.30;;;6.83;;
2289;SDS011;1153;47.986;7.898;2023-03-08T07:02:16;11.23;;;8.40;;
2289;SDS011;1153;47.986;7.898;2023-03-08T07:04:42;8.23;;;6.80;;
2289;SDS011;1153;47.986;7.898;2023-03-08T07:07:07;10.70;;;7.50;;
2289;SDS011;1153;47.986;7.898;2023-03-08T07:09:32;17.73;;;9.27;;
2289;SDS011;1153;47.986;7.898;2023-03-08T07:11:58;30.57;;;14.57;;
2289;SDS011;1153;47.986;7.898;2023-03-08T07:14:23;12.93;;;8.80;;
2289;SDS011;1153;47.986;7.898;2023-03-08T07:16:48;14.13;;;8.70;;
2289;SDS011;1153;47.986;7.898;2023-03-08T07:19:13;11.10;;;7.50;;
2289;SDS011;1153;47.986;7.898;2023-03-08T07:21:38;9.80;;;8.33;;
2289;SDS011;1153;47.986;7.898;2023-03-08T07:24:08;11.97;;;8.10;;
2289;SDS011;1153;47.986;7.898;2023-03-08T07:26:33;6.70;;;6.00;;
2289;SDS011;1153;47.986;7.898;2023-03-08T07:28:58;9.33;;;6.90;;
2289;SDS011;1153;47.986;7.898;2023-03-08T07:31:23;8.77;;;6.10;;
2289;SDS011;1153;47.986;7.898;2023-03-08T07:33:50;6.30;;;5.20;;
2289;SDS011;1153;47.986;7.898;2023-03-08T07:36:15;8.00;;;4.90;;
2289;SDS011;1153;47.986;7.898;2023-03-08T07:38:41;6.80;;;4.47;;
2289;SDS011;1153;47.986;7.898;2023-03-08T07:41:06;6.57;;;4.30;;
2289;SDS011;1153;47.986;7.898;2023-03-08T07:43:31;3.60;;;3.40;;
2289;SDS011;1153;47.986;7.898;2023-03-08T07:46:00;5.47;;;1.27;;
2289;SDS011;1153;47.986;7.898;2023-03-08T07:48:26;7.63;;;1.60;;
2289;SDS011;1153;47.986;7.898;2023-03-08T07:50:51;2.00;;;1.53;;
2289;SDS011;1153;47.986;7.898;2023-03-08T07:53:16;1.03;;;0.60;;
2289;SDS011;1153;47.986;7.898;2023-03-08T07:55:42;2.47;;;0.50;;
2289;SDS011;1153;47.986;7.898;2023-03-08T07:58:07;1.20;;;0.60;;
2289;SDS011;1153;47.986;7.898;2023-03-08T08:00:32;1.90;;;0.83;;
2289;SDS011;1153;47.986;7.898;2023-03-08T08:02:57;2.10;;;0.70;;
2289;SDS011;1153;47.986;7.898;2023-03-08T08:05:22;1.03;;;0.60;;
2289;SDS011;1153;47.986;7.898;2023-03-08T08:07:47;0.70;;;0.40;;
2289;SDS011;1153;47.986;7.898;2023-03-08T08:10:13;1.20;;;0.50;;
2289;SDS011;1153;47.986;7.898;2023-03-08T08:12:38;0.77;;;0.40;;
2289;SDS011;1153;47.986;7.898;2023-03-08T08:15:03;5.23;;;0.50;;
2289;SDS011;1153;47.986;7.898;2023-03-08T08:17:29;0.60;;;0.33;;
2289;SDS011;1153;47.986;7.898;2023-03-08T08:19:54;1.20;;;0.40;;
2289;SDS011;1153;47.986;7.898;2023-03-08T08:22:19;0.83;;;0.50;;
2289;SDS011;1153;47.986;7.898;2023-03-08T08:24:44;2.20;;;1.03;;
2289;SDS011;1153;47.986;7.898;2023-03-08T08:27:09;0.70;;;0.30;;
2289;SDS011;1153;47.986;7.898;2023-03-08T08:29:35;0.90;;;0.40;;
2289;SDS011;1153;47.986;7.898;2023-03-08T08:32:01;0.70;;;0.30;;
2289;SDS011;1153;47.986;7.898;2023-03-08T08:34:27;0.77;;;0.47;;
2289;SDS011;1153;47.986;7.898;2023-03-08T08:36:52;0.70;;;0.30;;
2289;SDS011;1153;47.986;7.898;2023-03-08T08:39:17;0.80;;;0.30;;
2289;SDS011;1153;47.986;7.898;2023-03-08T08:41:42;0.47;;;0.20;;
2289;SDS011;1153;47.986;7.898;2023-03-08T08:44:08;0.60;;;0.30;;
2289;SDS011;1153;47.986;7.898;2023-03-08T08:46:33;2.20;;;0.30;;
2289;SDS011;1153;47.986;7.898;2023-03-08T08:48:59;0.60;;;0.20;;
2289;SDS011;1153;47.986;7.898;2023-03-08T08:51:24;0.73;;;0.30;;
2289;SDS011;1153;47.986;7.898;2023-03-08T08:53:50;0.50;;;0.20;;
2289;SDS011;1153;47.986;7.898;2023-03-08T08:56:18;0.67;;;0.30;;
2289;SDS011;1153;47.986;7.898;2023-03-08T08:58:44;0.40;;;0.20;;
2289;SDS011;1153;47.986;7.898;2023-03-08T09:01:17;1.27;;;0.30;;
2289;SDS011;1153;47.986;7.898;2023-03-08T09:03:43;3.90;;;0.20;;
2289;SDS011;1153;47.986;7.898;2023-03-08T09:06:08;0.97;;;0.20;;
2289;SDS011;1153;47.986;7.898;2023-03-08T09:08:34;0.40;;;0.20;;
2289;SDS011;1153;47.986;7.898;2023-03-08T09:11:01;0.57;;;0.20;;
2289;SDS011;1153;47.986;7.898;2023-03-08T09:13:27;0.40;;;0.20;;
2289;SDS011;1153;47.986;7.898;2023-03-08T09:15:52;0.40;;;0.20;;
2289;SDS011;1153;47.986;7.898;2023-03-08T09:18:17;0.40;;;0.20;;
2289;SDS011;1153;47.986;7.898;2023-03-08T09:20:42;0.50;;;0.20;;
2289;SDS011;1153;47.986;7.898;2023-03-08T09:23:07;0.50;;;0.20;;
2289;SDS011;1153;47.986;7.898;2023-03-08T09:25:34;0.60;;;0.20;;
2289;SDS011;1153;47.986;7.898;2023-03-08T09:27:59;1.47;;;0.20;;
2289;SDS011;1153;47.986;7.898;2023-03-08T09:30:24;0.70;;;0.20;;
2289;SDS011;1153;47.986;7.898;2023-03-08T09:32:49;0.50;;;0.20;;
2289;SDS011;1153;47.986;7.898;2023-03-08T09:35:14;0.50;;;0.20;;
2289;SDS011;1153;47.986;7.898;2023-03-08T09:37:40;0.50;;;0.27;;
2289;SDS011;1153;47.986;7.898;2023-03-08T09:40:05;0.63;;;0.30;;
2289;SDS011;1153;47.986;7.898;2023-03-08T09:42:33;0.60;;;0.30;;
2289;SDS011;1153;47.986;7.898;2023-03-08T09:45:05;0.60;;;0.30;;
2289;SDS011;1153;47.986;7.898;2023-03-08T09:52:53;0.40;;;0.20;;
2289;SDS011;1153;47.986;7.898;2023-03-08T09:55:22;0.50;;;0.20;;
2289;SDS011;1153;47.986;7.898;2023-03-08T09:57:54;1.27;;;0.27;;
2289;SDS011;1153;47.986;7.898;2023-03-08T10:00:28;0.60;;;0.30;;
2289;SDS011;1153;47.986;7.898;2023-03-08T10:11:02;0.70;;;0.30;;
2289;SDS011;1153;47.986;7.898;2023-03-08T10:13:30;2.00;;;0.30;;
2289;SDS011;1153;47.986;7.898;2023-03-08T10:16:43;0.80;;;0.50;;
2289;SDS011;1153;47.986;7.898;2023-03-08T10:21:09;2.93;;;0.30;;
2289;SDS011;1153;47.986;7.898;2023-03-08T10:23:35;0.50;;;0.30;;
2289;SDS011;1153;47.986;7.898;2023-03-08T10:26:04;0.60;;;0.30;;
2289;SDS011;1153;47.986;7.898;2023-03-08T10:28:30;0.60;;;0.30;;
2289;SDS011;1153;47.986;7.898;2023-03-08T10:30:57;0.83;;;0.30;;
2289;SDS011;1153;47.986;7.898;2023-03-08T10:33:22;0.60;;;0.20;;
2289;SDS011;1153;47.986;7.898;2023-03-08T10:35:53;0.50;;;0.23;;
2289;SDS011;1153;47.986;7.898;2023-03-08T10:38:18;0.60;;;0.30;;
2289;SDS011;1153;47.986;7.898;2023-03-08T10:40:43;0.70;;;0.37;;
2289;SDS011;1153;47.986;7.898;2023-03-08T10:43:14;0.90;;;0.40;;
2289;SDS011;1153;47.986;7.898;2023-03-08T10:45:42;0.70;;;0.40;;
2289;SDS011;1153;47.986;7.898;2023-03-08T10:48:15;0.97;;;0.30;;
2289;SDS011;1153;47.986;7.898;2023-03-08T10:50:41;0.77;;;0.50;;
2289;SDS011;1153;47.986;7.898;2023-03-08T10:53:10;0.70;;;0.40;;
2289;SDS011;1153;47.986;7.898;2023-03-08T10:55:45;1.37;;;0.40;;
2289;SDS011;1153;47.986;7.898;2023-03-08T10:58:31;0.67;;;0.40;;
2289;SDS011;1153;47.986;7.898;2023-03-08T11:00:59;0.70;;;0.40;;
2289;SDS011;1153;47.986;7.898;2023-03-08T11:03:25;0.53;;;0.30;;
2289;SDS011;1153;47.986;7.898;2023-03-08T11:06:01;1.37;;;0.40;;
2289;SDS011;1153;47.986;7.898;2023-03-08T11:08:34;0.90;;;0.50;;
2289;SDS011;1153;47.986;7.898;2023-03-08T11:11:01;7.57;;;0.67;;
2289;SDS011;1153;47.986;7.898;2023-03-08T11:13:30;0.90;;;0.60;;
2289;SDS011;1153;47.986;7.898;2023-03-08T11:32:41;1.20;;;0.50;;
2289;SDS011;1153;47.986;7.898;2023-03-08T11:37:58;0.70;;;0.40;;
2289;SDS011;1153;47.986;7.898;2023-03-08T11:40:38;1.37;;;0.50;;
2289;SDS011;1153;47.986;7.898;2023-03-08T11:46:05;0.70;;;0.40;;
2289;SDS011;1153;47.986;7.898;2023-03-08T11:51:07;0.70;;;0.40;;
2289;SDS011;1153;47.986;7.898;2023-03-08T11:58:56;1.63;;;0.40;;
2289;SDS011;1153;47.986;7.898;2023-03-08T12:01:27;0.60;;;0.40;;
2289;SDS011;1153;47.986;7.898;2023-03-08T12:03:54;1.20;;;0.40;;
2289;SDS011;1153;47.986;7.898;2023-03-08T12:06:25;0.50;;;0.20;;
2289;SDS011;1153;47.986;7.898;2023-03-08T12:09:05;0.70;;;0.30;;
2289;SDS011;1153;47.986;7.898;2023-03-08T12:11:37;0.50;;;0.30;;
2289;SDS011;1153;47.986;7.898;2023-03-08T12:14:05;0.50;;;0.30;;
2289;SDS011;1153;47.986;7.898;2023-03-08T12:16:44;0.70;;;0.40;;
2289;SDS011;1153;47.986;7.898;2023-03-08T12:19:16;0.50;;;0.30;;
2289;SDS011;1153;47.986;7.898;2023-03-08T12:21:48;4.73;;;0.30;;
2289;SDS011;1153;47.986;7.898;2023-03-08T12:29:28;1.83;;;0.40;;
2289;SDS011;1153;47.986;7.898;2023-03-08T12:31:57;1.60;;;0.40;;
2289;SDS011;1153;47.986;7.898;2023-03-08T12:36:51;0.40;;;0.20;;
2289;SDS011;1153;47.986;7.898;2023-03-08T12:39:28;0.40;;;0.20;;
2289;SDS011;1153;47.986;7.898;2023-03-08T12:42:13;0.50;;;0.20;;
2289;SDS011;1153;47.986;7.898;2023-03-08T12:44:38;0.50;;;0.20;;
2289;SDS011;1153;47.986;7.898;2023-03-08T12:49:36;0.50;;;0.20;;
2289;SDS011;1153;47.986;7.898;2023-03-08T12:52:05;0.50;;;0.20;;
2289;SDS011;1153;47.986;7.898;2023-03-08T12:54:32;2.37;;;0.30;;
2289;SDS011;1153;47.986;7.898;2023-03-08T12:56:58;1.90;;;0.20;;
2289;SDS011;1153;47.986;7.898;2023-03-08T12:59:25;0.80;;;0.33;;
2289;SDS011;1153;47.986;7.898;2023-03-08T13:04:40;0.50;;;0.30;;
2289;SDS011;1153;47.986;7.898;2023-03-08T13:14:41;0.60;;;0.30;;
2289;SDS011;1153;47.986;7.898;2023-03-08T13:19:50;0.50;;;0.23;;
2289;SDS011;1153;47.986;7.898;2023-03-08T13:22:20;0.60;;;0.30;;
2289;SDS011;1153;47.986;7.898;2023-03-08T13:29:58;0.60;;;0.30;;
2289;SDS011;1153;47.986;7.898;2023-03-08T13:32:25;2.83;;;0.30;;
2289;SDS011;1153;47.986;7.898;2023-03-08T13:34:57;0.40;;;0.20;;
2289;SDS011;1153;47.986;7.898;2023-03-08T13:37:24;3.70;;;0.30;;
2289;SDS011;1153;47.986;7.898;2023-03-08T13:39:53;1.77;;;0.30;;
2289;SDS011;1153;47.986;7.898;2023-03-08T13:42:18;0.60;;;0.30;;
2289;SDS011;1153;47.986;7.898;2023-03-08T13:44:48;0.50;;;0.20;;
2289;SDS011;1153;47.986;7.898;2023-03-08T13:47:36;2.33;;;0.30;;
2289;SDS011;1153;47.986;7.898;2023-03-08T13:49:59;0.50;;;0.20;;
2289;SDS011;1153;47.986;7.898;2023-03-08T13:52:26;0.50;;;0.20;;
2289;SDS011;1153;47.986;7.898;2023-03-08T13:54:54;0.40;;;0.20;;
2289;SDS011;1153;47.986;7.898;2023-03-08T13:59:52;0.50;;;0.20;;
2289;SDS011;1153;47.986;7.898;2023-03-08T14:02:19;0.40;;;0.20;;
2289;SDS011;1153;47.986;7.898;2023-03-08T14:04:45;0.50;;;0.20;;
2289;SDS011;1153;47.986;7.898;2023-03-08T14:07:16;0.60;;;0.27;;
2289;SDS011;1153;47.986;7.898;2023-03-08T14:09:43;0.90;;;0.30;;
2289;SDS011;1153;47.986;7.898;2023-03-08T14:12:11;2.37;;;0.20;;
2289;SDS011;1153;47.986;7.898;2023-03-08T14:14:38;0.50;;;0.20;;
2289;SDS011;1153;47.986;7.898;2023-03-08T14:17:04;1.70;;;0.20;;
2289;SDS011;1153;47.986;7.898;2023-03-08T14:19:31;0.40;;;0.20;;
2289;SDS011;1153;47.986;7.898;2023-03-08T14:21:59;0.40;;;0.20;;
2289;SDS011;1153;47.986;7.898;2023-03-08T14:24:26;0.50;;;0.20;;
2289;SDS011;1153;47.986;7.898;2023-03-08T14:27:23;0.50;;;0.30;;
2289;SDS011;1153;47.986;7.898;2023-03-08T14:29:40;0.40;;;0.20;;
2289;SDS011;1153;47.986;7.898;2023-03-08T14:39:29;0.93;;;0.20;;
2289;SDS011;1153;47.986;7.898;2023-03-08T14:41:55;2.83;;;0.30;;
2289;SDS011;1153;47.986;7.898;2023-03-08T14:44:25;0.70;;;0.20;;
2289;SDS011;1153;47.986;7.898;2023-03-08T14:46:52;1.50;;;0.20;;
2289;SDS011;1153;47.986;7.898;2023-03-08T14:49:23;0.70;;;0.30;;
2289;SDS011;1153;47.986;7.898;2023-03-08T14:51:49;2.60;;;0.30;;
2289;SDS011;1153;47.986;7.898;2023-03-08T14:54:31;0.53;;;0.20;;
2289;SDS011;1153;47.986;7.898;2023-03-08T14:56:57;0.73;;;0.30;;
2289;SDS011;1153;47.986;7.898;2023-03-08T14:59:22;0.40;;;0.20;;
2289;SDS011;1153;47.986;7.898;2023-03-08T15:01:48;0.60;;;0.20;;
2289;SDS011;1153;47.986;7.898;2023-03-08T15:04:17;0.53;;;0.20;;
2289;SDS011;1153;47.986;7.898;2023-03-08T15:06:43;0.60;;;0.27;;
2289;SDS011;1153;47.986;7.898;2023-03-08T15:09:08;7.23;;;0.30;;
2289;SDS011;1153;47.986;7.898;2023-03-08T15:11:34;1.03;;;0.20;;
2289;SDS011;1153;47.986;7.898;2023-03-08T15:13:59;0.90;;;0.30;;
2289;SDS011;1153;47.986;7.898;2023-03-08T15:16:24;0.70;;;0.20;;
2289;SDS011;1153;47.986;7.898;2023-03-08T15:18:49;0.63;;;0.20;;
2289;SDS011;1153;47.986;7.898;2023-03-08T15:21:16;0.70;;;0.30;;
2289;SDS011;1153;47.986;7.898;2023-03-08T15:23:42;1.17;;;0.20;;
2289;SDS011;1153;47.986;7.898;2023-03-08T15:26:09;0.60;;;0.30;;
2289;SDS011;1153;47.986;7.898;2023-03-08T15:28:37;0.53;;;0.30;;
2289;SDS011;1153;47.986;7.898;2023-03-08T15:31:02;0.60;;;0.30;;
2289;SDS011;1153;47.986;7.898;2023-03-08T15:33:27;0.57;;;0.20;;
2289;SDS011;1153;47.986;7.898;2023-03-08T15:35:53;1.93;;;0.40;;
2289;SDS011;1153;47.986;7.898;2023-03-08T15:38:18;0.60;;;0.27;;
2289;SDS011;1153;47.986;7.898;2023-03-08T15:40:44;0.50;;;0.30;;
2289;SDS011;1153;47.986;7.898;2023-03-08T15:43:10;1.70;;;0.20;;
2289;SDS011;1153;47.986;7.898;2023-03-08T15:45:35;0.80;;;0.30;;
2289;SDS011;1153;47.986;7.898;2023-03-08T15:48:03;0.60;;;0.30;;
2289;SDS011;1153;47.986;7.898;2023-03-08T15:50:29;0.67;;;0.30;;
2289;SDS011;1153;47.986;7.898;2023-03-08T15:52:54;1.23;;;0.20;;
2289;SDS011;1153;47.986;7.898;2023-03-08T15:55:20;0.70;;;0.30;;
2289;SDS011;1153;47.986;7.898;2023-03-08T15:57:46;1.53;;;0.30;;
2289;SDS011;1153;47.986;7.898;2023-03-08T16:00:12;1.10;;;0.30;;
2289;SDS011;1153;47.986;7.898;2023-03-08T16:02:37;0.40;;;0.20;;
2289;SDS011;1153;47.986;7.898;2023-03-08T16:05:07;1.23;;;0.30;;
2289;SDS011;1153;47.986;7.898;2023-03-08T16:07:32;0.50;;;0.30;;
2289;SDS011;1153;47.986;7.898;2023-03-08T16:09:57;0.60;;;0.30;;
2289;SDS011;1153;47.986;7.898;2023-03-08T16:12:22;0.60;;;0.30;;
2289;SDS011;1153;47.986;7.898;2023-03-08T16:14:48;0.50;;;0.30;;
2289;SDS011;1153;47.986;7.898;2023-03-08T16:17:14;0.60;;;0.30;;
2289;SDS011;1153;47.986;7.898;2023-03-08T16:19:40;0.60;;;0.30;;
2289;SDS011;1153;47.986;7.898;2023-03-08T16:22:05;1.13;;;0.20;;
2289;SDS011;1153;47.986;7.898;2023-03-08T16:24:30;0.70;;;0.37;;
2289;SDS011;1153;47.986;7.898;2023-03-08T16:26:55;1.47;;;0.40;;
2289;SDS011;1153;47.986;7.898;2023-03-08T16:29:21;0.63;;;0.30;;
2289;SDS011;1153;47.986;7.898;2023-03-08T16:31:47;3.70;;;0.20;;
2289;SDS011;1153;47.986;7.898;2023-03-08T16:34:12;0.50;;;0.27;;
2289;SDS011;1153;47.986;7.898;2023-03-08T16:36:38;0.50;;;0.30;;
2289;SDS011;1153;47.986;7.898;2023-03-08T16:39:03;1.17;;;0.30;;